createdAt,value
2017-11-14T00:01:59.345Z,5.43
2017-11-14T00:04:26.929Z,6.00
2017-11-14T00:06:55.041Z,6.33
2017-11-14T00:09:22.615Z,6.30
2017-11-14T00:11:52.532Z,7.00
2017-11-14T00:14:20.939Z,7.10
2017-11-14T00:16:49.620Z,5.80
2017-11-14T00:19:17.194Z,5.37
2017-11-14T00:21:44.743Z,6.07
2017-11-14T00:24:12.595Z,5.80
2017-11-14T00:26:40.125Z,6.10
2017-11-14T00:29:07.803Z,7.30
2017-11-14T00:31:35.378Z,6.90
2017-11-14T00:34:02.907Z,6.10
2017-11-14T00:36:30.472Z,9.13
2017-11-14T00:38:58.014Z,8.37
2017-11-14T00:41:25.809Z,8.17
2017-11-14T00:43:53.391Z,5.63
2017-11-14T00:46:20.907Z,9.80
2017-11-14T00:48:48.453Z,7.40
2017-11-14T00:51:16.016Z,9.43
2017-11-14T00:53:44.209Z,6.30
2017-11-14T00:56:11.863Z,6.97
2017-11-14T00:58:39.393Z,7.20
2017-11-14T01:01:07.026Z,8.47
2017-11-14T01:03:34.598Z,8.17
2017-11-14T01:06:02.139Z,7.70
2017-11-14T01:08:29.653Z,7.60
2017-11-14T01:10:57.265Z,6.47
2017-11-14T01:13:24.851Z,10.40
2017-11-14T01:15:52.743Z,8.47
2017-11-14T01:18:20.279Z,6.00
2017-11-14T01:20:47.792Z,6.40
2017-11-14T01:23:15.347Z,6.70
2017-11-14T01:25:43.010Z,6.80
2017-11-14T01:28:10.971Z,7.00
2017-11-14T01:30:38.523Z,7.40
2017-11-14T01:33:06.048Z,8.80
2017-11-14T01:35:33.615Z,6.67
2017-11-14T01:38:01.143Z,7.23
2017-11-14T01:40:28.874Z,7.97
2017-11-14T01:42:56.413Z,7.50
2017-11-14T01:45:23.955Z,8.33
2017-11-14T01:47:51.548Z,10.20
2017-11-14T20:58:09.865Z,44.58
2017-11-14T21:00:38.561Z,45.63
2017-11-14T21:03:07.230Z,39.40
2017-11-14T21:05:35.250Z,44.67
2017-11-14T21:08:03.122Z,37.73
2017-11-14T21:10:30.908Z,44.77
2017-11-14T21:12:58.655Z,39.40
2017-11-14T21:15:26.659Z,46.97
2017-11-14T21:17:55.350Z,44.40
2017-11-14T21:20:23.191Z,42.67
2017-11-14T21:22:53.299Z,40.47
2017-11-14T21:25:21.509Z,43.40
2017-11-14T21:27:49.627Z,45.97
2017-11-14T21:30:17.636Z,42.97
2017-11-14T21:32:45.379Z,42.10
2017-11-14T21:35:13.287Z,44.67
2017-11-14T21:37:41.384Z,44.70
2017-11-14T21:40:09.318Z,46.13
2017-11-14T21:42:37.084Z,50.00
2017-11-14T21:45:04.847Z,44.70
2017-11-14T21:47:32.788Z,46.30
2017-11-14T21:50:00.561Z,42.20
2017-11-14T21:52:28.247Z,54.97
2017-11-14T21:54:55.882Z,50.23
2017-11-14T21:57:23.538Z,46.00
2017-11-14T21:59:51.185Z,51.33
2017-11-14T22:02:18.849Z,46.57
2017-11-14T22:04:46.653Z,46.90
2017-11-14T22:07:14.270Z,51.53
2017-11-14T22:09:41.930Z,48.70
2017-11-14T22:12:09.503Z,46.30
2017-11-14T22:14:37.214Z,43.97
2017-11-14T22:17:04.877Z,43.43
2017-11-14T22:19:33.393Z,45.07
2017-11-14T22:22:02.130Z,48.67
2017-11-14T22:24:30.917Z,57.90
2017-11-14T22:26:58.710Z,48.90
2017-11-14T22:29:26.389Z,44.40
2017-11-14T22:31:54.150Z,44.20
2017-11-14T22:34:21.771Z,51.13
2017-11-14T22:36:49.384Z,47.00
2017-11-14T22:39:17.006Z,48.43
2017-11-14T22:41:44.691Z,49.30
2017-11-14T22:44:13.389Z,48.87
